createdAt,value
2019-01-19T00:01:29.767Z,25.10
2019-01-19T00:04:27.231Z,30.43
2019-01-19T00:07:21.225Z,26.07
2019-01-19T00:10:09.172Z,29.33
2019-01-19T00:12:58.735Z,28.63
2019-01-19T00:15:30.339Z,30.03
2019-01-19T00:18:04.938Z,27.80
2019-01-19T00:20:48.395Z,22.93
2019-01-19T00:23:25.645Z,24.70
2019-01-19T00:26:15.419Z,23.87
2019-01-19T00:28:53.102Z,28.00
2019-01-19T00:31:36.703Z,22.87
2019-01-19T00:34:34.140Z,26.77
2019-01-19T00:37:05.421Z,25.67
2019-01-19T00:39:45.854Z,21.73
2019-01-19T00:42:29.694Z,24.63
2019-01-19T00:45:20.769Z,21.13
2019-01-19T00:48:04.132Z,28.17
2019-01-19T00:50:47.667Z,24.50
2019-01-19T00:53:21.962Z,19.37
2019-01-19T00:56:05.375Z,24.57
2019-01-19T00:58:49.061Z,22.27
2019-01-19T01:01:38.837Z,26.07
2019-01-19T01:04:36.276Z,21.37
2019-01-19T01:07:10.975Z,25.97
2019-01-19T01:09:54.626Z,26.10
2019-01-19T01:12:32.094Z,22.23
2019-01-19T01:15:16.018Z,24.70
2019-01-19T01:17:46.063Z,25.53
2019-01-19T01:20:23.274Z,29.27
2019-01-19T01:22:57.813Z,23.20
2019-01-19T01:25:32.121Z,22.83
2019-01-19T01:28:18.770Z,26.20
2019-01-19T01:30:59.223Z,23.17
2019-01-19T01:33:48.694Z,23.70
2019-01-19T01:36:31.686Z,26.33
2019-01-19T01:39:15.401Z,23.13
2019-01-19T01:41:55.965Z,27.73
2019-01-19T01:44:33.411Z,24.40
2019-01-19T01:47:22.944Z,32.50
2019-01-19T01:50:00.277Z,23.93
2019-01-19T01:52:37.865Z,25.20
2019-01-19T01:55:12.429Z,23.60
2019-01-19T01:57:43.924Z,26.70
2019-01-19T02:00:25.355Z,25.10
2019-01-19T02:03:09.057Z,22.17
2019-01-19T02:05:52.494Z,26.07
2019-01-19T02:08:26.643Z,20.80
2019-01-19T02:10:58.272Z,25.20
2019-01-19T02:13:47.827Z,25.37
2019-01-19T02:16:31.315Z,23.73
2019-01-19T02:19:17.695Z,25.77
2019-01-19T02:21:58.332Z,27.57
2019-01-19T02:24:45.260Z,29.17
2019-01-19T02:27:44.254Z,31.97
2019-01-19T02:30:35.367Z,25.63
2019-01-19T02:33:12.581Z,26.57
2019-01-19T02:35:48.621Z,24.70
2019-01-19T02:38:26.449Z,26.70
2019-01-19T02:41:04.138Z,27.07
2019-01-19T02:43:58.541Z,23.47
2019-01-19T02:46:57.415Z,27.27
2019-01-19T02:50:02.423Z,27.73
2019-01-19T02:52:36.649Z,26.67
2019-01-19T02:55:29.213Z,26.30
2019-01-19T02:58:23.485Z,24.97
2019-01-19T03:01:01.089Z,27.57
2019-01-19T03:03:35.294Z,25.43
2019-01-19T03:06:09.571Z,24.27
2019-01-19T03:08:59.221Z,23.90
2019-01-19T03:11:30.826Z,22.83
2019-01-19T03:14:08.358Z,24.40
2019-01-19T03:17:03.705Z,29.23
2019-01-19T03:19:47.446Z,27.33
2019-01-19T03:22:27.886Z,27.97
2019-01-19T03:24:59.509Z,27.20
2019-01-19T03:27:31.124Z,24.23
2019-01-19T03:30:19.444Z,26.63
2019-01-19T03:32:54.023Z,28.50
2019-01-19T03:35:28.668Z,24.70
2019-01-19T03:38:12.547Z,25.83
2019-01-19T03:40:50.096Z,28.67
2019-01-19T03:43:30.547Z,22.17
2019-01-19T03:46:20.381Z,21.27
2019-01-19T03:48:57.629Z,28.73
2019-01-19T03:51:29.243Z,29.60
2019-01-19T03:54:00.875Z,30.00
2019-01-19T03:56:47.358Z,26.63
2019-01-19T03:59:27.829Z,25.03
2019-01-19T04:02:02.270Z,23.37
2019-01-19T04:04:58.387Z,24.30
2019-01-19T04:07:36.102Z,26.80
2019-01-19T04:10:16.393Z,25.33
2019-01-19T04:13:18.534Z,29.57
2019-01-19T04:15:58.697Z,31.33
2019-01-19T04:18:32.988Z,29.13
2019-01-19T04:21:25.656Z,29.30
2019-01-19T04:24:00.247Z,28.43
2019-01-19T04:26:31.633Z,32.90
2019-01-19T04:29:00.063Z,34.33
2019-01-19T04:31:28.525Z,37.37
2019-01-19T04:33:57.528Z,30.93
2019-01-19T04:36:26.154Z,26.80
2019-01-19T04:38:54.862Z,23.87
2019-01-19T04:41:23.306Z,22.00
2019-01-19T04:43:51.730Z,30.37
2019-01-19T04:46:20.188Z,30.83
2019-01-19T04:48:48.885Z,29.77
2019-01-19T04:51:17.343Z,36.60
2019-01-19T04:53:45.769Z,30.40
2019-01-19T04:56:14.233Z,28.13
2019-01-19T04:58:42.650Z,26.37
2019-01-19T05:01:11.104Z,27.63
2019-01-19T05:03:39.537Z,31.10
2019-01-19T05:06:12.547Z,27.70
2019-01-19T05:08:38.240Z,31.57
2019-01-19T05:11:06.668Z,31.60
2019-01-19T05:13:35.119Z,33.70
2019-01-19T05:16:03.554Z,54.73
2019-01-19T05:18:32.079Z,577.10
2019-01-19T05:21:00.583Z,586.27
2019-01-19T05:23:29.315Z,439.90
2019-01-19T05:25:57.740Z,60.63
2019-01-19T05:28:26.206Z,27.00
2019-01-19T05:30:54.630Z,66.77
2019-01-19T05:33:23.090Z,519.83
2019-01-19T05:35:51.593Z,380.60
2019-01-19T05:38:20.128Z,269.13
2019-01-19T05:40:48.550Z,56.33
2019-01-19T05:43:17.009Z,25.17
2019-01-19T05:45:45.445Z,593.37
2019-01-19T05:48:13.907Z,112.93
2019-01-19T05:50:42.407Z,70.90
2019-01-19T05:53:10.866Z,206.63
2019-01-19T05:55:39.303Z,29.23
2019-01-19T05:58:07.751Z,363.87
2019-01-19T06:00:36.551Z,583.43
2019-01-19T06:03:05.176Z,449.97
2019-01-19T06:05:33.679Z,522.90
2019-01-19T06:08:02.112Z,366.70
2019-01-19T06:10:30.600Z,374.20
2019-01-19T06:12:59.087Z,317.50
2019-01-19T06:15:27.535Z,161.20
2019-01-19T06:17:55.976Z,200.43
2019-01-19T06:20:24.428Z,184.13
2019-01-19T06:22:52.858Z,150.93
2019-01-19T06:25:21.326Z,180.87
2019-01-19T06:27:49.755Z,148.37
2019-01-19T06:30:22.677Z,320.77
2019-01-19T06:32:51.108Z,408.98
2019-01-19T06:35:19.633Z,365.87
2019-01-19T06:37:48.215Z,189.47
2019-01-19T06:40:18.208Z,55.50
2019-01-19T06:42:46.683Z,53.27
2019-01-19T06:45:18.303Z,75.43
2019-01-19T06:47:46.818Z,296.40
2019-01-19T06:50:16.821Z,258.37
2019-01-19T06:52:45.322Z,207.03
2019-01-19T06:55:19.050Z,271.23
2019-01-19T06:57:47.477Z,95.10
2019-01-19T07:00:17.936Z,23.30
2019-01-19T07:02:46.437Z,24.00
2019-01-19T07:05:15.234Z,23.37
2019-01-19T07:07:43.736Z,22.75
2019-01-19T07:10:20.773Z,15.70
2019-01-19T07:12:49.265Z,12.97
2019-01-19T07:15:17.791Z,12.70
2019-01-19T07:17:46.208Z,11.60
2019-01-19T07:20:17.191Z,12.87
2019-01-19T07:22:45.690Z,15.80
2019-01-19T07:25:14.423Z,15.80
2019-01-19T07:27:42.910Z,17.67
2019-01-19T07:30:17.769Z,18.80
2019-01-19T07:32:47.433Z,20.10
2019-01-19T07:35:17.518Z,22.73
2019-01-19T07:37:46.029Z,21.23
2019-01-19T07:40:17.191Z,22.53
2019-01-19T07:42:46.837Z,20.40
2019-01-19T07:45:16.247Z,17.70
2019-01-19T07:47:45.379Z,15.40
2019-01-19T07:50:18.247Z,19.17
2019-01-19T07:52:46.946Z,18.57
2019-01-19T07:55:17.222Z,16.87
2019-01-19T07:57:45.675Z,18.60
2019-01-19T08:00:17.403Z,19.90
2019-01-19T08:02:45.925Z,15.10
2019-01-19T08:05:14.355Z,14.77
2019-01-19T08:07:42.811Z,15.30
2019-01-19T08:10:16.736Z,16.17
2019-01-19T08:12:45.324Z,15.57
2019-01-19T08:15:19.511Z,15.10
2019-01-19T08:17:47.963Z,20.40
2019-01-19T08:20:16.528Z,20.30
2019-01-19T08:22:44.987Z,21.40
2019-01-19T08:25:13.958Z,20.13
2019-01-19T08:27:42.470Z,16.63
2019-01-19T08:30:17.658Z,17.43
2019-01-19T08:32:46.173Z,21.00
2019-01-19T08:35:16.507Z,20.27
2019-01-19T08:37:45.307Z,21.00
2019-01-19T08:40:19.231Z,19.70
2019-01-19T08:42:49.394Z,18.20
2019-01-19T08:45:18.686Z,15.57
2019-01-19T08:47:47.205Z,16.93
2019-01-19T08:50:15.703Z,15.87
2019-01-19T08:52:44.221Z,18.43
2019-01-19T08:55:12.653Z,20.13
2019-01-19T08:57:41.104Z,19.83
2019-01-19T09:00:12.697Z,19.70
2019-01-19T09:02:41.144Z,20.50
2019-01-19T09:05:10.909Z,17.23
2019-01-19T09:07:39.368Z,16.67
2019-01-19T09:10:16.801Z,18.00
2019-01-19T09:12:45.294Z,17.27
2019-01-19T09:15:19.101Z,19.73
2019-01-19T09:17:47.557Z,19.17
2019-01-19T09:20:18.746Z,22.17
2019-01-19T09:22:48.904Z,25.33
2019-01-19T09:25:17.505Z,32.57
2019-01-19T09:27:46.022Z,25.20
2019-01-19T09:30:20.111Z,31.23
2019-01-19T09:32:48.631Z,26.33
2019-01-19T09:35:17.427Z,29.57
2019-01-19T09:37:46.948Z,32.13
2019-01-19T09:40:17.665Z,32.50
2019-01-19T09:42:46.253Z,38.57
2019-01-19T09:45:18.725Z,29.60
2019-01-19T09:47:47.314Z,29.67
2019-01-19T09:50:18.144Z,28.20
2019-01-19T09:52:46.588Z,30.03
2019-01-19T09:55:15.160Z,33.23
2019-01-19T09:57:43.681Z,26.80
2019-01-19T10:00:21.130Z,26.40
2019-01-19T10:02:49.656Z,30.60
2019-01-19T10:05:22.889Z,29.80
2019-01-19T10:07:51.413Z,33.40
2019-01-19T10:10:19.985Z,34.47
2019-01-19T10:12:48.504Z,36.37
2019-01-19T10:15:19.042Z,32.73
2019-01-19T10:17:47.491Z,32.27
2019-01-19T10:20:30.296Z,29.73
2019-01-19T10:22:58.744Z,33.37
2019-01-19T10:25:27.170Z,30.53
2019-01-19T10:27:55.793Z,30.10
2019-01-19T10:30:28.563Z,30.40
2019-01-19T10:32:57.155Z,31.47
2019-01-19T10:35:25.651Z,30.87
2019-01-19T10:37:56.514Z,30.60
2019-01-19T10:40:24.407Z,31.10
2019-01-19T10:42:52.834Z,32.70
2019-01-19T10:45:23.993Z,29.50
2019-01-19T10:47:52.488Z,31.03
2019-01-19T10:50:21.005Z,29.30
2019-01-19T10:52:49.502Z,27.63
2019-01-19T10:55:20.295Z,29.40
2019-01-19T10:57:48.863Z,28.67
2019-01-19T11:00:20.020Z,34.30
2019-01-19T11:02:48.514Z,28.80
2019-01-19T11:05:17.033Z,28.70
2019-01-19T11:07:47.097Z,28.93
2019-01-19T11:10:18.091Z,28.67
2019-01-19T11:12:46.576Z,29.33
2019-01-19T11:15:17.569Z,32.03
2019-01-19T11:17:45.992Z,29.00
2019-01-19T11:20:19.909Z,29.80
2019-01-19T11:22:48.331Z,29.40
2019-01-19T11:25:17.014Z,32.63
2019-01-19T11:27:45.501Z,31.80
2019-01-19T11:30:28.028Z,28.13
2019-01-19T11:32:56.521Z,28.13
2019-01-19T11:35:25.052Z,31.23
2019-01-19T11:37:53.618Z,31.43
2019-01-19T11:40:24.607Z,28.03
2019-01-19T11:42:53.030Z,28.03
2019-01-19T11:45:22.929Z,28.50
2019-01-19T11:47:51.417Z,27.63
2019-01-19T11:50:20.000Z,25.77
2019-01-19T11:52:48.597Z,27.00
2019-01-19T11:55:19.229Z,28.80
2019-01-19T11:57:49.311Z,31.23
2019-01-19T12:00:20.044Z,30.47
2019-01-19T12:02:48.555Z,24.47
2019-01-19T12:05:17.047Z,26.77
2019-01-19T12:07:45.499Z,30.63
2019-01-19T12:10:22.132Z,33.60
2019-01-19T12:12:50.586Z,26.67
2019-01-19T12:15:19.083Z,32.37
2019-01-19T12:17:47.598Z,29.10
2019-01-19T12:20:21.274Z,33.33
2019-01-19T12:22:49.860Z,36.00
2019-01-19T12:25:25.710Z,30.23
2019-01-19T12:27:54.396Z,28.50
2019-01-19T12:30:27.955Z,27.63
2019-01-19T12:32:56.470Z,32.90
2019-01-19T12:35:24.957Z,31.13
2019-01-19T12:37:53.745Z,31.10
2019-01-19T12:40:24.315Z,30.43
2019-01-19T12:42:55.604Z,32.67
2019-01-19T12:45:39.265Z,32.83
2019-01-19T12:48:07.718Z,34.80
2019-01-19T12:50:36.228Z,32.23
2019-01-19T12:53:04.849Z,33.07
2019-01-19T12:55:33.605Z,28.90
2019-01-19T12:58:02.129Z,29.90
2019-01-19T13:00:30.612Z,25.93
2019-01-19T13:02:59.065Z,33.57
2019-01-19T13:05:30.662Z,32.73
2019-01-19T13:07:59.413Z,31.33
2019-01-19T13:10:33.701Z,31.30
2019-01-19T13:13:03.301Z,29.70
2019-01-19T13:15:49.620Z,30.17
2019-01-19T13:18:42.160Z,32.23
2019-01-19T13:21:30.242Z,28.73
2019-01-19T13:24:21.228Z,31.07
2019-01-19T13:27:12.166Z,30.93
2019-01-19T13:29:46.642Z,30.90
2019-01-19T13:32:18.242Z,26.40
2019-01-19T13:34:49.867Z,31.17
2019-01-19T13:37:33.191Z,33.50
2019-01-19T13:40:10.017Z,29.53
2019-01-19T13:42:59.495Z,31.47
2019-01-19T13:45:49.128Z,28.63
2019-01-19T13:48:32.933Z,30.97
2019-01-19T13:51:10.229Z,28.97
2019-01-19T13:53:56.933Z,31.80
2019-01-19T13:56:31.405Z,26.20
2019-01-19T13:59:09.006Z,31.50
2019-01-19T14:01:43.543Z,28.67
2019-01-19T14:04:24.050Z,29.27
2019-01-19T14:06:58.670Z,31.57
2019-01-19T14:09:36.199Z,32.00
2019-01-19T14:12:19.603Z,35.40
2019-01-19T14:14:56.912Z,29.20
2019-01-19T14:17:40.090Z,29.47
2019-01-19T14:20:28.364Z,32.40
2019-01-19T14:23:27.767Z,28.00
2019-01-19T14:26:26.366Z,34.03
2019-01-19T14:29:16.894Z,34.20
2019-01-19T14:31:51.115Z,33.37
2019-01-19T14:34:28.633Z,29.33
2019-01-19T14:37:15.085Z,32.20
2019-01-19T14:40:01.687Z,31.40
2019-01-19T14:42:36.253Z,35.60
2019-01-19T14:45:25.555Z,30.13
2019-01-19T14:48:06.269Z,28.30
2019-01-19T14:50:43.471Z,30.80
2019-01-19T14:53:18.136Z,30.90
2019-01-19T14:56:14.091Z,31.47
2019-01-19T14:59:09.985Z,30.63
2019-01-19T15:01:56.425Z,34.80
2019-01-19T15:04:30.835Z,29.73
2019-01-19T15:07:14.011Z,33.40
2019-01-19T15:09:57.501Z,33.83
2019-01-19T15:12:34.852Z,33.53
2019-01-19T15:15:09.111Z,36.63
2019-01-19T15:18:05.225Z,38.67
2019-01-19T15:20:45.969Z,34.37
2019-01-19T15:23:29.619Z,34.10
2019-01-19T15:26:06.976Z,34.67
2019-01-19T15:28:53.524Z,38.87
2019-01-19T15:31:30.686Z,36.97
2019-01-19T15:34:05.120Z,30.13
2019-01-19T15:37:02.360Z,36.50
2019-01-19T15:39:33.992Z,33.63
2019-01-19T15:42:30.926Z,39.90
2019-01-19T15:45:31.386Z,37.90
2019-01-19T15:48:14.683Z,29.67
2019-01-19T15:51:10.395Z,31.60
2019-01-19T15:53:42.023Z,40.07
2019-01-19T15:56:43.782Z,33.30
2019-01-19T15:59:36.357Z,20.57
2019-01-19T16:02:16.680Z,24.00
2019-01-19T16:05:09.356Z,27.87
2019-01-19T16:07:47.097Z,41.20
2019-01-19T16:10:39.821Z,209.13
2019-01-19T16:13:14.219Z,355.70
2019-01-19T16:16:13.298Z,233.20
2019-01-19T16:18:47.879Z,99.47
2019-01-19T16:21:28.377Z,89.90
2019-01-19T16:24:05.807Z,972.40
2019-01-19T16:26:58.294Z,138.00
2019-01-19T16:29:44.783Z,37.20
2019-01-19T16:32:31.300Z,32.57
2019-01-19T16:35:25.730Z,50.47
2019-01-19T16:38:02.655Z,585.80
2019-01-19T16:40:49.121Z,471.83
2019-01-19T16:43:35.822Z,497.10
2019-01-19T16:46:16.163Z,463.00
2019-01-19T16:49:07.232Z,593.63
2019-01-19T16:51:44.761Z,284.17
2019-01-19T16:54:26.001Z,110.60
2019-01-19T16:57:03.866Z,22.43
2019-01-19T16:59:57.005Z,99.93
2019-01-19T17:02:52.905Z,105.07
2019-01-19T17:05:27.367Z,46.03
2019-01-19T17:08:01.693Z,182.03
2019-01-19T17:10:38.982Z,334.63
2019-01-19T17:13:27.369Z,134.03
2019-01-19T17:16:24.692Z,46.07
2019-01-19T17:19:14.601Z,31.87
2019-01-19T17:21:54.987Z,369.07
2019-01-19T17:24:38.616Z,419.52
2019-01-19T17:27:16.084Z,142.00
2019-01-19T17:29:53.625Z,23.37
2019-01-19T17:32:32.818Z,22.23
2019-01-19T17:35:22.610Z,30.95
2019-01-19T17:38:09.230Z,29.48
2019-01-19T17:41:03.344Z,26.75
2019-01-19T17:43:40.922Z,26.50
2019-01-19T17:46:15.295Z,25.57
2019-01-19T17:48:49.740Z,111.72
2019-01-19T17:51:44.103Z,31.95
2019-01-19T17:54:21.540Z,33.10
2019-01-19T17:57:10.114Z,28.00
2019-01-19T18:00:16.451Z,28.50
2019-01-19T18:02:56.846Z,26.37
2019-01-19T18:05:40.433Z,30.80
2019-01-19T18:08:31.429Z,25.37
2019-01-19T18:11:19.513Z,22.27
2019-01-19T18:13:56.757Z,27.67
2019-01-19T18:16:50.853Z,25.10
2019-01-19T18:19:25.480Z,28.93
2019-01-19T18:22:28.833Z,30.10
2019-01-19T18:25:06.464Z,26.20
2019-01-19T18:27:53.344Z,26.97
2019-01-19T18:30:51.277Z,27.87
2019-01-19T18:33:25.974Z,26.30
2019-01-19T18:36:12.620Z,25.82
2019-01-19T18:38:49.935Z,29.20
2019-01-19T18:41:36.426Z,27.85
2019-01-19T18:44:16.793Z,27.45
2019-01-19T18:46:57.630Z,28.95
2019-01-19T18:49:52.007Z,27.30
2019-01-19T18:52:26.467Z,29.77
2019-01-19T18:55:03.993Z,30.77
2019-01-19T18:57:53.773Z,35.92
2019-01-19T19:00:37.267Z,30.88
2019-01-19T19:03:14.430Z,31.57
2019-01-19T19:05:55.371Z,32.35
2019-01-19T19:08:36.020Z,31.17
2019-01-19T19:11:19.355Z,31.70
2019-01-19T19:14:11.922Z,34.13
2019-01-19T19:16:48.974Z,29.90
2019-01-19T19:19:32.055Z,28.40
2019-01-19T19:22:09.721Z,26.33
2019-01-19T19:24:49.967Z,26.75
2019-01-19T19:27:30.431Z,25.80
2019-01-19T19:30:04.719Z,28.42
2019-01-19T19:32:42.330Z,25.30
2019-01-19T19:35:16.623Z,25.35
2019-01-19T19:37:54.290Z,22.65
2019-01-19T19:40:44.009Z,28.38
2019-01-19T19:43:18.643Z,26.48
2019-01-19T19:45:55.968Z,26.20
2019-01-19T19:48:42.717Z,27.45
2019-01-19T19:51:43.096Z,23.87
2019-01-19T19:54:11.630Z,24.40
2019-01-19T19:56:39.037Z,24.18
2019-01-19T19:59:07.566Z,24.30
2019-01-19T20:01:36.007Z,22.95
2019-01-19T20:04:04.540Z,24.20
2019-01-19T20:06:32.977Z,26.40
2019-01-19T20:09:01.504Z,24.85
2019-01-19T20:11:30.410Z,21.65
2019-01-19T20:13:58.874Z,27.50
2019-01-19T20:16:27.309Z,27.48
2019-01-19T20:18:55.769Z,33.42
2019-01-19T20:21:24.282Z,30.17
2019-01-19T20:23:52.742Z,29.90
2019-01-19T20:26:21.551Z,31.70
2019-01-19T20:28:50.012Z,33.08
2019-01-19T20:31:18.450Z,31.90
2019-01-19T20:33:46.909Z,37.88
2019-01-19T20:36:15.350Z,37.40
2019-01-19T20:38:43.818Z,40.85
2019-01-19T20:41:12.253Z,39.08
2019-01-19T20:43:40.721Z,35.92
2019-01-19T20:46:09.169Z,36.85
2019-01-19T20:48:37.806Z,37.80
2019-01-19T20:51:06.317Z,35.00
2019-01-19T20:53:34.829Z,41.70
2019-01-19T20:56:03.337Z,40.52
2019-01-19T20:58:31.763Z,37.78
2019-01-19T21:01:00.226Z,35.15
2019-01-19T21:03:28.663Z,42.10
2019-01-19T21:05:57.120Z,37.00
2019-01-19T21:08:25.556Z,44.00
2019-01-19T21:10:54.015Z,41.00
2019-01-19T21:13:22.452Z,40.33
2019-01-19T21:15:50.910Z,37.45
2019-01-19T21:18:19.354Z,42.17
2019-01-19T21:20:47.823Z,35.85
2019-01-19T21:23:16.254Z,39.03
2019-01-19T21:25:44.721Z,37.93
2019-01-19T21:28:13.160Z,38.67
2019-01-19T21:30:41.627Z,42.95
2019-01-19T21:33:10.064Z,40.40
2019-01-19T21:35:38.521Z,36.38
2019-01-19T21:38:07.025Z,41.95
2019-01-19T21:40:39.199Z,44.45
2019-01-19T21:43:05.643Z,40.37
2019-01-19T21:45:34.102Z,40.75
2019-01-19T21:48:02.542Z,40.75
2019-01-19T21:50:31.000Z,39.00
2019-01-19T21:52:59.435Z,37.83
2019-01-19T21:55:27.892Z,37.80
2019-01-19T21:57:56.335Z,40.05
2019-01-19T22:00:24.775Z,41.02
2019-01-19T22:02:53.309Z,45.00
2019-01-19T22:05:21.809Z,34.48
2019-01-19T22:07:50.345Z,38.98
2019-01-19T22:10:22.660Z,40.08
2019-01-19T22:12:51.301Z,38.70
2019-01-19T22:15:20.097Z,41.20
2019-01-19T22:17:48.558Z,38.13
2019-01-19T22:20:18.240Z,43.58
2019-01-19T22:22:46.876Z,40.45
2019-01-19T22:25:15.383Z,42.65
2019-01-19T22:27:45.487Z,48.45
2019-01-19T22:30:16.572Z,39.27
2019-01-19T22:32:45.028Z,42.85
2019-01-19T22:35:13.634Z,43.15
2019-01-19T22:37:42.162Z,55.60
2019-01-19T22:40:13.913Z,47.88
2019-01-19T22:42:42.370Z,47.33
2019-01-19T22:45:12.652Z,38.95
2019-01-19T22:47:41.113Z,47.17
2019-01-19T22:50:12.408Z,49.85
2019-01-19T22:52:40.862Z,55.60
2019-01-19T22:55:09.537Z,43.68
2019-01-19T22:57:38.004Z,66.90
2019-01-19T23:00:57.238Z,58.10
2019-01-19T23:03:26.139Z,44.77
2019-01-19T23:05:54.578Z,45.35
2019-01-19T23:08:23.040Z,45.20
2019-01-19T23:10:51.479Z,40.10
2019-01-19T23:13:19.941Z,61.45
2019-01-19T23:15:48.451Z,43.30
2019-01-19T23:18:16.973Z,41.85
2019-01-19T23:20:45.486Z,52.45
2019-01-19T23:23:13.950Z,64.03
2019-01-19T23:25:42.387Z,49.10
2019-01-19T23:28:10.848Z,82.15
2019-01-19T23:30:39.285Z,53.52
2019-01-19T23:33:07.747Z,66.82
2019-01-19T23:35:36.188Z,150.15
2019-01-19T23:38:04.681Z,66.67
2019-01-19T23:40:33.123Z,47.33
2019-01-19T23:43:01.558Z,65.17
2019-01-19T23:45:30.025Z,62.85
2019-01-19T23:47:58.461Z,70.95
2019-01-19T23:50:26.931Z,59.27
2019-01-19T23:52:55.363Z,54.08
2019-01-19T23:55:23.828Z,50.23
2019-01-19T23:57:52.258Z,51.28
